sensor_id;sensor_type;location;lat;lon;timestamp;pressure;altitude;pressure_sealevel;temperature;humidity
45403;BME280;47427;51.976;5.326;2022-09-09T00:03:24;100687.63;;;14.64;100.00
45403;BME280;47427;51.976;5.326;2022-09-09T00:07:15;100684.94;;;14.57;100.00
45403;BME280;47427;51.976;5.326;2022-09-09T00:11:02;100687.47;;;14.46;100.00
45403;BME280;47427;51.976;5.326;2022-09-09T00:18:44;100678.56;;;14.35;100.00
45403;BME280;47427;51.976;5.326;2022-09-09T00:22:18;100682.06;;;14.30;100.00
45403;BME280;47427;51.976;5.326;2022-09-09T00:33:25;100679.28;;;14.14;100.00
45403;BME280;47427;51.976;5.326;2022-09-09T00:36:51;100670.41;;;14.05;100.00
45403;BME280;47427;51.976;5.326;2022-09-09T00:40:37;100671.28;;;14.06;100.00
45403;BME280;47427;51.976;5.326;2022-09-09T00:44:25;100680.91;;;13.99;100.00
45403;BME280;47427;51.976;5.326;2022-09-09T00:47:52;100669.47;;;13.99;100.00
45403;BME280;47427;51.976;5.326;2022-09-09T00:51:37;100675.63;;;13.98;100.00
45403;BME280;47427;51.976;5.326;2022-09-09T00:55:25;100677.34;;;13.96;100.00
45403;BME280;47427;51.976;5.326;2022-09-09T00:59:27;100680.81;;;13.92;100.00
45403;BME280;47427;51.976;5.326;2022-09-09T01:06:37;100679.00;;;13.84;100.00
45403;BME280;47427;51.976;5.326;2022-09-09T01:10:27;100675.44;;;13.78;100.00
45403;BME280;47427;51.976;5.326;2022-09-09T01:18:07;100671.88;;;13.76;100.00
45403;BME280;47427;51.976;5.326;2022-09-09T01:21:56;100668.41;;;13.78;100.00
45403;BME280;47427;51.976;5.326;2022-09-09T01:29:18;100657.75;;;13.71;100.00
45403;BME280;47427;51.976;5.326;2022-09-09T01:32:50;100661.28;;;13.71;100.00
45403;BME280;47427;51.976;5.326;2022-09-09T01:36:28;100650.69;;;13.66;100.00
45403;BME280;47427;51.976;5.326;2022-09-09T01:39:52;100653.34;;;13.68;100.00
45403;BME280;47427;51.976;5.326;2022-09-09T01:43:15;100652.47;;;13.69;100.00
45403;BME280;47427;51.976;5.326;2022-09-09T01:46:38;100659.44;;;13.62;100.00
45403;BME280;47427;51.976;5.326;2022-09-09T01:50:10;100662.09;;;13.67;100.00
45403;BME280;47427;51.976;5.326;2022-09-09T01:53:35;100652.50;;;13.71;100.00
45403;BME280;47427;51.976;5.326;2022-09-09T01:57:28;100642.69;;;13.57;100.00
45403;BME280;47427;51.976;5.326;2022-09-09T02:04:52;100634.72;;;13.51;100.00
45403;BME280;47427;51.976;5.326;2022-09-09T02:08:33;100635.63;;;13.56;100.00
45403;BME280;47427;51.976;5.326;2022-09-09T02:12:13;100633.84;;;13.52;100.00
45403;BME280;47427;51.976;5.326;2022-09-09T02:19:31;100630.22;;;13.42;100.00
45403;BME280;47427;51.976;5.326;2022-09-09T02:23:01;100638.13;;;13.42;100.00
45403;BME280;47427;51.976;5.326;2022-09-09T02:26:26;100642.53;;;13.43;100.00
45403;BME280;47427;51.976;5.326;2022-09-09T02:29:56;100631.06;;;13.37;100.00
45403;BME280;47427;51.976;5.326;2022-09-09T02:33:52;100631.00;;;13.34;100.00
45403;BME280;47427;51.976;5.326;2022-09-09T02:37:20;100631.00;;;13.34;100.00
45403;BME280;47427;51.976;5.326;2022-09-09T02:40:48;100629.22;;;13.31;100.00
45403;BME280;47427;51.976;5.326;2022-09-09T02:44:13;100626.56;;;13.30;100.00
45403;BME280;47427;51.976;5.326;2022-09-09T02:48:16;100636.25;;;13.31;100.00
45403;BME280;47427;51.976;5.326;2022-09-09T02:51:53;100622.94;;;13.23;100.00
45403;BME280;47427;51.976;5.326;2022-09-09T02:55:41;100629.13;;;13.25;100.00
45403;BME280;47427;51.976;5.326;2022-09-09T02:59:07;100633.50;;;13.26;100.00
45403;BME280;47427;51.976;5.326;2022-09-09T03:02:31;100628.25;;;13.26;100.00
45403;BME280;47427;51.976;5.326;2022-09-09T03:05:59;100639.63;;;13.23;100.00
45403;BME280;47427;51.976;5.326;2022-09-09T03:09:23;100636.13;;;13.23;100.00
45403;BME280;47427;51.976;5.326;2022-09-09T03:13:04;100633.47;;;13.23;100.00
45403;BME280;47427;51.976;5.326;2022-09-09T03:16:31;100626.47;;;13.22;100.00
45403;BME280;47427;51.976;5.326;2022-09-09T03:19:56;100628.22;;;13.23;100.00
45403;BME280;47427;51.976;5.326;2022-09-09T03:23:20;100637.03;;;13.25;100.00
45403;BME280;47427;51.976;5.326;2022-09-09T03:26:44;100637.13;;;13.30;100.00
45403;BME280;47427;51.976;5.326;2022-09-09T03:30:10;100639.69;;;13.27;100.00
45403;BME280;47427;51.976;5.326;2022-09-09T03:33:33;100640.53;;;13.26;100.00
45403;BME280;47427;51.976;5.326;2022-09-09T03:36:57;100630.88;;;13.25;100.00
45403;BME280;47427;51.976;5.326;2022-09-09T03:40:21;100628.16;;;13.18;100.00
45403;BME280;47427;51.976;5.326;2022-09-09T03:43:43;100629.03;;;13.17;100.00
45403;BME280;47427;51.976;5.326;2022-09-09T03:47:07;100639.63;;;13.22;100.00
45403;BME280;47427;51.976;5.326;2022-09-09T03:50:30;100625.53;;;13.20;100.00
45403;BME280;47427;51.976;5.326;2022-09-09T03:54:16;100628.25;;;13.25;100.00
45403;BME280;47427;51.976;5.326;2022-09-09T03:57:38;100623.16;;;13.37;100.00
45403;BME280;47427;51.976;5.326;2022-09-09T04:01:10;100629.38;;;13.45;100.00
45403;BME280;47427;51.976;5.326;2022-09-09T04:04:36;100620.59;;;13.46;100.00
45403;BME280;47427;51.976;5.326;2022-09-09T04:07:59;100618.84;;;13.47;100.00
45403;BME280;47427;51.976;5.326;2022-09-09T04:11:22;100616.22;;;13.48;100.00
45403;BME280;47427;51.976;5.326;2022-09-09T04:14:47;100615.44;;;13.55;100.00
45403;BME280;47427;51.976;5.326;2022-09-09T04:18:11;100623.34;;;13.55;100.00
45403;BME280;47427;51.976;5.326;2022-09-09T04:21:34;100618.13;;;13.60;100.00
45403;BME280;47427;51.976;5.326;2022-09-09T04:24:57;100606.63;;;13.56;100.00
45403;BME280;47427;51.976;5.326;2022-09-09T04:28:23;100609.22;;;13.52;100.00
45403;BME280;47427;51.976;5.326;2022-09-09T04:31:46;100608.28;;;13.42;100.00
45403;BME280;47427;51.976;5.326;2022-09-09T04:35:09;100603.88;;;13.44;100.00
45403;BME280;47427;51.976;5.326;2022-09-09T04:38:32;100599.41;;;13.35;100.00
45403;BME280;47427;51.976;5.326;2022-09-09T04:41:56;100595.00;;;13.34;100.00
45403;BME280;47427;51.976;5.326;2022-09-09T04:45:19;100595.00;;;13.33;100.00
45403;BME280;47427;51.976;5.326;2022-09-09T04:48:42;100594.06;;;13.31;100.00
45403;BME280;47427;51.976;5.326;2022-09-09T04:52:05;100595.84;;;13.30;100.00
45403;BME280;47427;51.976;5.326;2022-09-09T04:55:30;100599.31;;;13.29;100.00
45403;BME280;47427;51.976;5.326;2022-09-09T04:58:53;100598.44;;;13.29;100.00
45403;BME280;47427;51.976;5.326;2022-09-09T05:02:23;100601.06;;;13.29;100.00
45403;BME280;47427;51.976;5.326;2022-09-09T05:05:46;100593.16;;;13.29;100.00
45403;BME280;47427;51.976;5.326;2022-09-09T05:09:27;100592.31;;;13.31;100.00
45403;BME280;47427;51.976;5.326;2022-09-09T05:12:54;100595.00;;;13.36;100.00
45403;BME280;47427;51.976;5.326;2022-09-09T05:16:21;100595.91;;;13.38;100.00
45403;BME280;47427;51.976;5.326;2022-09-09T05:19:45;100588.00;;;13.35;100.00
45403;BME280;47427;51.976;5.326;2022-09-09T05:23:26;100580.09;;;13.38;100.00
45403;BME280;47427;51.976;5.326;2022-09-09T05:27:09;100584.53;;;13.40;100.00
45403;BME280;47427;51.976;5.326;2022-09-09T05:30:35;100589.81;;;13.42;100.00
45403;BME280;47427;51.976;5.326;2022-09-09T05:34:00;100576.69;;;13.48;100.00
45403;BME280;47427;51.976;5.326;2022-09-09T05:37:41;100571.56;;;13.63;100.00
45403;BME280;47427;51.976;5.326;2022-09-09T05:41:05;100574.31;;;13.77;100.00
45403;BME280;47427;51.976;5.326;2022-09-09T05:44:28;100578.91;;;14.01;100.00
45403;BME280;47427;51.976;5.326;2022-09-09T05:47:52;100583.47;;;14.21;100.00
45403;BME280;47427;51.976;5.326;2022-09-09T05:51:21;100588.72;;;14.19;100.00
45403;BME280;47427;51.976;5.326;2022-09-09T05:54:45;100579.94;;;14.19;100.00
45403;BME280;47427;51.976;5.326;2022-09-09T05:58:07;100591.38;;;14.22;100.00
45403;BME280;47427;51.976;5.326;2022-09-09T06:01:33;100593.03;;;14.09;100.00
45403;BME280;47427;51.976;5.326;2022-09-09T06:04:57;100596.63;;;14.13;100.00
45403;BME280;47427;51.976;5.326;2022-09-09T06:08:20;100584.44;;;14.37;100.00
45403;BME280;47427;51.976;5.326;2022-09-09T06:11:43;100596.09;;;14.65;100.00
45403;BME280;47427;51.976;5.326;2022-09-09T06:15:08;100594.44;;;14.87;100.00
45403;BME280;47427;51.976;5.326;2022-09-09T06:18:31;100587.44;;;14.98;100.00
45403;BME280;47427;51.976;5.326;2022-09-09T06:21:54;100590.16;;;15.18;100.00
45403;BME280;47427;51.976;5.326;2022-09-09T06:25:17;100592.88;;;15.39;100.00
45403;BME280;47427;51.976;5.326;2022-09-09T06:28:41;100585.00;;;15.87;100.00
45403;BME280;47427;51.976;5.326;2022-09-09T06:32:05;100597.38;;;16.11;100.00
45403;BME280;47427;51.976;5.326;2022-09-09T06:35:31;100583.25;;;16.11;100.00
45403;BME280;47427;51.976;5.326;2022-09-09T06:38:54;100581.41;;;16.54;98.21
45403;BME280;47427;51.976;5.326;2022-09-09T06:42:17;100576.09;;;16.56;96.75
45403;BME280;47427;51.976;5.326;2022-09-09T06:46:16;100585.91;;;16.14;96.63
45403;BME280;47427;51.976;5.326;2022-09-09T06:49:40;100578.81;;;16.17;97.31
45403;BME280;47427;51.976;5.326;2022-09-09T06:53:21;100578.31;;;17.55;93.07
45403;BME280;47427;51.976;5.326;2022-09-09T06:56:44;100586.94;;;17.93;87.71
45403;BME280;47427;51.976;5.326;2022-09-09T07:00:15;100579.06;;;17.74;87.88
45403;BME280;47427;51.976;5.326;2022-09-09T07:03:39;100577.53;;;17.41;88.45
45403;BME280;47427;51.976;5.326;2022-09-09T07:07:03;100583.03;;;17.03;89.76
45403;BME280;47427;51.976;5.326;2022-09-09T07:10:27;100571.59;;;16.90;91.00
45403;BME280;47427;51.976;5.326;2022-09-09T07:13:50;100572.34;;;17.18;90.08
45403;BME280;47427;51.976;5.326;2022-09-09T07:17:13;100578.56;;;17.13;88.31
45403;BME280;47427;51.976;5.326;2022-09-09T07:20:37;100573.84;;;17.62;86.94
45403;BME280;47427;51.976;5.326;2022-09-09T07:24:01;100565.72;;;20.03;79.37
45403;BME280;47427;51.976;5.326;2022-09-09T07:27:24;100575.91;;;20.28;76.88
45403;BME280;47427;51.976;5.326;2022-09-09T07:30:55;100572.06;;;20.91;71.43
45403;BME280;47427;51.976;5.326;2022-09-09T07:34:37;100570.63;;;20.74;71.48
45403;BME280;47427;51.976;5.326;2022-09-09T07:38:01;100563.25;;;19.89;73.41
45403;BME280;47427;51.976;5.326;2022-09-09T07:41:28;100574.22;;;19.09;77.53
45403;BME280;47427;51.976;5.326;2022-09-09T07:44:50;100576.09;;;18.99;77.41
45403;BME280;47427;51.976;5.326;2022-09-09T07:48:17;100580.28;;;18.40;79.51
45403;BME280;47427;51.976;5.326;2022-09-09T07:51:45;100581.16;;;18.40;79.60
45403;BME280;47427;51.976;5.326;2022-09-09T07:55:09;100576.72;;;19.20;77.58
45403;BME280;47427;51.976;5.326;2022-09-09T07:58:33;100574.16;;;19.12;75.96
45403;BME280;47427;51.976;5.326;2022-09-09T08:01:59;100587.28;;;18.49;77.69
45403;BME280;47427;51.976;5.326;2022-09-09T08:05:24;100582.06;;;18.41;79.52
45403;BME280;47427;51.976;5.326;2022-09-09T08:09:07;100588.31;;;18.34;79.31
45403;BME280;47427;51.976;5.326;2022-09-09T08:12:32;100596.56;;;18.03;79.78
45403;BME280;47427;51.976;5.326;2022-09-09T08:16:15;100588.75;;;17.77;81.71
45403;BME280;47427;51.976;5.326;2022-09-09T08:19:39;100594.88;;;17.94;81.38
45403;BME280;47427;51.976;5.326;2022-09-09T08:23:06;100596.78;;;17.71;81.56
45403;BME280;47427;51.976;5.326;2022-09-09T08:26:37;100601.28;;;17.63;81.41
45403;BME280;47427;51.976;5.326;2022-09-09T08:30:01;100598.59;;;17.66;82.69
45403;BME280;47427;51.976;5.326;2022-09-09T08:33:25;100609.09;;;17.86;82.07
45403;BME280;47427;51.976;5.326;2022-09-09T08:36:49;100606.44;;;17.86;82.09
45403;BME280;47427;51.976;5.326;2022-09-09T08:40:30;100608.03;;;18.08;81.31
45403;BME280;47427;51.976;5.326;2022-09-09T08:48:30;100620.50;;;17.97;81.39
45403;BME280;47427;51.976;5.326;2022-09-09T08:51:58;100614.63;;;17.47;81.91
45403;BME280;47427;51.976;5.326;2022-09-09T08:55:44;100609.38;;;17.38;82.70
45403;BME280;47427;51.976;5.326;2022-09-09T08:59:10;100620.84;;;17.40;82.69
45403;BME280;47427;51.976;5.326;2022-09-09T09:10:50;100615.34;;;17.80;81.34
45403;BME280;47427;51.976;5.326;2022-09-09T09:14:28;100618.69;;;18.02;80.85
45403;BME280;47427;51.976;5.326;2022-09-09T09:17:57;100624.88;;;18.03;80.50
45403;BME280;47427;51.976;5.326;2022-09-09T09:25:23;100619.50;;;18.13;80.04
45403;BME280;47427;51.976;5.326;2022-09-09T09:28:48;100627.59;;;17.98;79.03
45403;BME280;47427;51.976;5.326;2022-09-09T09:32:16;100624.09;;;17.90;80.34
45403;BME280;47427;51.976;5.326;2022-09-09T09:35:41;100624.94;;;17.98;79.31
45403;BME280;47427;51.976;5.326;2022-09-09T09:39:04;100620.53;;;17.92;80.16
45403;BME280;47427;51.976;5.326;2022-09-09T09:42:29;100630.34;;;17.86;80.32
45403;BME280;47427;51.976;5.326;2022-09-09T09:45:53;100627.72;;;17.73;79.98
45403;BME280;47427;51.976;5.326;2022-09-09T09:49:34;100622.53;;;17.58;80.32
45403;BME280;47427;51.976;5.326;2022-09-09T09:53:00;100625.03;;;17.84;80.13
45403;BME280;47427;51.976;5.326;2022-09-09T09:56:28;100629.47;;;17.82;79.39
45403;BME280;47427;51.976;5.326;2022-09-09T10:00:15;100616.97;;;17.95;78.66
45403;BME280;47427;51.976;5.326;2022-09-09T10:03:57;100621.38;;;17.99;78.86
45403;BME280;47427;51.976;5.326;2022-09-09T10:07:22;100632.00;;;18.01;78.40
45403;BME280;47427;51.976;5.326;2022-09-09T10:19:00;100630.38;;;17.75;81.57
45403;BME280;47427;51.976;5.326;2022-09-09T10:22:52;100632.09;;;17.79;82.16
45403;BME280;47427;51.976;5.326;2022-09-09T10:38:36;100638.28;;;17.84;89.09
45403;BME280;47427;51.976;5.326;2022-09-09T10:42:13;100626.25;;;20.93;77.26
45403;BME280;47427;51.976;5.326;2022-09-09T10:50:03;100628.78;;;23.78;62.49
45403;BME280;47427;51.976;5.326;2022-09-09T10:57:57;100623.84;;;22.02;67.02
45403;BME280;47427;51.976;5.326;2022-09-09T11:01:33;100608.72;;;21.65;68.70
45403;BME280;47427;51.976;5.326;2022-09-09T11:05:20;100604.91;;;21.35;71.07
45403;BME280;47427;51.976;5.326;2022-09-09T11:08:44;100613.00;;;19.87;74.06
45403;BME280;47427;51.976;5.326;2022-09-09T11:12:17;100616.84;;;19.66;74.88
45403;BME280;47427;51.976;5.326;2022-09-09T11:19:39;100625.72;;;19.70;74.14
45403;BME280;47427;51.976;5.326;2022-09-09T11:23:13;100616.88;;;18.98;76.09
45403;BME280;47427;51.976;5.326;2022-09-09T11:26:44;100620.47;;;18.94;76.89
45403;BME280;47427;51.976;5.326;2022-09-09T11:30:21;100616.91;;;18.94;78.21
45403;BME280;47427;51.976;5.326;2022-09-09T11:34:13;100616.47;;;18.52;81.01
45403;BME280;47427;51.976;5.326;2022-09-09T11:41:52;100612.59;;;17.89;84.73
45403;BME280;47427;51.976;5.326;2022-09-09T11:45:25;100609.06;;;17.90;84.94
45403;BME280;47427;51.976;5.326;2022-09-09T11:49:01;100606.63;;;17.55;86.81
45403;BME280;47427;51.976;5.326;2022-09-09T11:52:47;100606.78;;;17.26;88.45
45403;BME280;47427;51.976;5.326;2022-09-09T11:56:13;100613.06;;;17.09;90.54
45403;BME280;47427;51.976;5.326;2022-09-09T11:59:36;100607.81;;;16.94;91.24
45403;BME280;47427;51.976;5.326;2022-09-09T12:02:59;100606.84;;;17.10;92.46
45403;BME280;47427;51.976;5.326;2022-09-09T12:06:31;100603.94;;;17.58;90.62
45403;BME280;47427;51.976;5.326;2022-09-09T12:10:31;100613.63;;;17.70;88.90
45403;BME280;47427;51.976;5.326;2022-09-09T12:14:00;100616.00;;;18.96;86.24
45403;BME280;47427;51.976;5.326;2022-09-09T12:17:29;100608.16;;;21.49;77.00
45403;BME280;47427;51.976;5.326;2022-09-09T12:25:01;100602.06;;;21.44;70.83
45403;BME280;47427;51.976;5.326;2022-09-09T12:32:22;100616.81;;;19.71;77.46
45403;BME280;47427;51.976;5.326;2022-09-09T12:35:57;100607.72;;;19.22;78.21
45403;BME280;47427;51.976;5.326;2022-09-09T12:39:45;100611.81;;;19.46;77.44
45403;BME280;47427;51.976;5.326;2022-09-09T12:43:20;100602.72;;;19.61;77.93
45403;BME280;47427;51.976;5.326;2022-09-09T12:46:45;100599.47;;;19.41;78.97
45403;BME280;47427;51.976;5.326;2022-09-09T12:50:36;100613.19;;;19.10;78.87
45403;BME280;47427;51.976;5.326;2022-09-09T12:54:00;100600.50;;;18.53;83.00
45403;BME280;47427;51.976;5.326;2022-09-09T12:57:25;100598.88;;;18.41;83.53
45403;BME280;47427;51.976;5.326;2022-09-09T13:00:54;100607.13;;;18.08;86.01
45403;BME280;47427;51.976;5.326;2022-09-09T13:04:21;100605.50;;;17.90;87.47
45403;BME280;47427;51.976;5.326;2022-09-09T13:07:47;100600.97;;;18.03;86.54
45403;BME280;47427;51.976;5.326;2022-09-09T13:11:49;100601.50;;;18.45;85.26
45403;BME280;47427;51.976;5.326;2022-09-09T13:15:23;100601.63;;;19.13;82.58
45403;BME280;47427;51.976;5.326;2022-09-09T13:18:47;100600.06;;;19.61;79.79
45403;BME280;47427;51.976;5.326;2022-09-09T13:22:20;100590.25;;;19.65;78.76
45403;BME280;47427;51.976;5.326;2022-09-09T13:25:57;100591.59;;;19.35;79.41
45403;BME280;47427;51.976;5.326;2022-09-09T13:29:20;100590.19;;;19.73;76.48
45403;BME280;47427;51.976;5.326;2022-09-09T13:32:43;100591.81;;;19.81;76.27
45403;BME280;47427;51.976;5.326;2022-09-09T13:36:09;100583.88;;;19.77;76.40
45403;BME280;47427;51.976;5.326;2022-09-09T13:39:35;100582.19;;;19.73;77.06
45403;BME280;47427;51.976;5.326;2022-09-09T13:42:59;100586.50;;;19.80;77.25
45403;BME280;47427;51.976;5.326;2022-09-09T13:46:38;100581.63;;;20.05;75.24
45403;BME280;47427;51.976;5.326;2022-09-09T13:50:28;100575.31;;;20.12;75.16
45403;BME280;47427;51.976;5.326;2022-09-09T13:53:51;100581.13;;;20.34;73.85
45403;BME280;47427;51.976;5.326;2022-09-09T13:57:19;100582.06;;;21.62;68.81
45403;BME280;47427;51.976;5.326;2022-09-09T14:00:42;100580.41;;;22.29;66.02
45403;BME280;47427;51.976;5.326;2022-09-09T14:04:07;100575.22;;;21.88;67.96
45403;BME280;47427;51.976;5.326;2022-09-09T14:07:31;100583.50;;;21.38;69.42
45403;BME280;47427;51.976;5.326;2022-09-09T14:10:54;100578.50;;;21.23;70.40
45403;BME280;47427;51.976;5.326;2022-09-09T14:14:18;100578.31;;;20.88;71.95
45403;BME280;47427;51.976;5.326;2022-09-09T14:17:41;100569.63;;;21.61;70.43
45403;BME280;47427;51.976;5.326;2022-09-09T14:21:04;100567.56;;;23.06;65.30
45403;BME280;47427;51.976;5.326;2022-09-09T14:24:27;100573.50;;;28.78;49.08
45403;BME280;47427;51.976;5.326;2022-09-09T14:27:50;100558.31;;;26.13;54.77
45403;BME280;47427;51.976;5.326;2022-09-09T14:31:14;100559.31;;;24.99;55.36
45403;BME280;47427;51.976;5.326;2022-09-09T14:34:37;100571.81;;;25.23;54.62
45403;BME280;47427;51.976;5.326;2022-09-09T14:38:00;100556.56;;;25.00;55.09
45403;BME280;47427;51.976;5.326;2022-09-09T14:41:24;100561.56;;;23.00;60.25
45403;BME280;47427;51.976;5.326;2022-09-09T14:44:47;100557.00;;;22.70;61.76
45403;BME280;47427;51.976;5.326;2022-09-09T14:48:10;100555.63;;;21.89;64.77
45403;BME280;47427;51.976;5.326;2022-09-09T14:51:33;100556.56;;;22.22;63.63
45403;BME280;47427;51.976;5.326;2022-09-09T14:54:56;100553.56;;;23.56;59.84
45403;BME280;47427;51.976;5.326;2022-09-09T14:58:19;100559.69;;;24.90;55.22
45403;BME280;47427;51.976;5.326;2022-09-09T15:01:42;100559.47;;;26.28;50.68
45403;BME280;47427;51.976;5.326;2022-09-09T15:05:23;100563.91;;;27.66;47.67
45403;BME280;47427;51.976;5.326;2022-09-09T15:08:47;100571.19;;;29.03;43.80
45403;BME280;47427;51.976;5.326;2022-09-09T15:12:10;100566.97;;;29.31;42.44
45403;BME280;47427;51.976;5.326;2022-09-09T15:15:33;100579.03;;;27.32;45.78
45403;BME280;47427;51.976;5.326;2022-09-09T15:18:58;100573.13;;;24.64;52.71
45403;BME280;47427;51.976;5.326;2022-09-09T15:22:22;100588.34;;;23.28;55.19
45403;BME280;47427;51.976;5.326;2022-09-09T15:25:54;100582.97;;;22.67;57.49
45403;BME280;47427;51.976;5.326;2022-09-09T15:29:17;100573.75;;;22.10;59.42
45403;BME280;47427;51.976;5.326;2022-09-09T15:32:41;100585.47;;;21.70;61.79
45403;BME280;47427;51.976;5.326;2022-09-09T15:36:22;100591.06;;;21.17;63.81
45403;BME280;47427;51.976;5.326;2022-09-09T15:39:45;100601.97;;;21.07;64.41
45403;BME280;47427;51.976;5.326;2022-09-09T15:43:09;100597.59;;;21.03;64.89
45403;BME280;47427;51.976;5.326;2022-09-09T15:46:35;100593.06;;;21.06;64.79
45403;BME280;47427;51.976;5.326;2022-09-09T15:49:59;100591.00;;;21.19;63.64
45403;BME280;47427;51.976;5.326;2022-09-09T15:53:40;100592.94;;;21.12;64.02
45403;BME280;47427;51.976;5.326;2022-09-09T15:57:06;100597.34;;;21.15;63.85
45403;BME280;47427;51.976;5.326;2022-09-09T16:00:29;100596.09;;;21.31;62.85
45403;BME280;47427;51.976;5.326;2022-09-09T16:03:52;100600.53;;;20.89;64.02
45403;BME280;47427;51.976;5.326;2022-09-09T16:07:15;100596.84;;;20.48;65.40
45403;BME280;47427;51.976;5.326;2022-09-09T16:10:38;100595.84;;;20.56;66.48
45403;BME280;47427;51.976;5.326;2022-09-09T16:14:00;100589.78;;;20.47;67.34
45403;BME280;47427;51.976;5.326;2022-09-09T16:17:24;100585.16;;;20.58;66.80
45403;BME280;47427;51.976;5.326;2022-09-09T16:20:56;100588.44;;;20.23;67.68
45403;BME280;47427;51.976;5.326;2022-09-09T16:24:19;100586.34;;;19.90;69.05
45403;BME280;47427;51.976;5.326;2022-09-09T16:27:42;100592.72;;;19.79;70.06
45403;BME280;47427;51.976;5.326;2022-09-09T16:31:15;100607.72;;;19.86;70.21
45403;BME280;47427;51.976;5.326;2022-09-09T16:34:38;100613.09;;;19.83;70.75
45403;BME280;47427;51.976;5.326;2022-09-09T16:38:02;100622.69;;;19.91;70.79
45403;BME280;47427;51.976;5.326;2022-09-09T16:41:26;100616.03;;;19.63;71.65
45403;BME280;47427;51.976;5.326;2022-09-09T16:44:52;100621.09;;;19.81;72.25
45403;BME280;47427;51.976;5.326;2022-09-09T16:48:15;100633.91;;;20.65;69.70
45403;BME280;47427;51.976;5.326;2022-09-09T16:51:47;100624.44;;;20.93;68.05
45403;BME280;47427;51.976;5.326;2022-09-09T16:55:10;100624.38;;;20.50;68.94
45403;BME280;47427;51.976;5.326;2022-09-09T16:58:33;100622.84;;;20.37;69.65
45403;BME280;47427;51.976;5.326;2022-09-09T17:01:56;100633.38;;;20.92;67.49
45403;BME280;47427;51.976;5.326;2022-09-09T17:05:18;100626.41;;;20.85;67.00
45403;BME280;47427;51.976;5.326;2022-09-09T17:08:42;100622.31;;;20.66;67.08
45403;BME280;47427;51.976;5.326;2022-09-09T17:12:05;100626.03;;;20.06;69.48
45403;BME280;47427;51.976;5.326;2022-09-09T17:15:27;100641.63;;;19.73;71.14
45403;BME280;47427;51.976;5.326;2022-09-09T17:18:51;100631.59;;;19.25;72.71
45403;BME280;47427;51.976;5.326;2022-09-09T17:22:14;100632.66;;;19.12;73.23
45403;BME280;47427;51.976;5.326;2022-09-09T17:25:37;100632.94;;;18.89;74.53
45403;BME280;47427;51.976;5.326;2022-09-09T17:29:01;100643.69;;;18.78;75.33
45403;BME280;47427;51.976;5.326;2022-09-09T17:32:24;100649.94;;;18.68;75.79
45403;BME280;47427;51.976;5.326;2022-09-09T17:35:47;100644.84;;;18.48;76.58
45403;BME280;47427;51.976;5.326;2022-09-09T17:39:11;100650.28;;;18.34;76.93
45403;BME280;47427;51.976;5.326;2022-09-09T17:42:34;100653.06;;;18.22;77.40
45403;BME280;47427;51.976;5.326;2022-09-09T17:46:10;100652.25;;;18.14;78.08
45403;BME280;47427;51.976;5.326;2022-09-09T17:49:32;100649.69;;;18.02;78.77
45403;BME280;47427;51.976;5.326;2022-09-09T17:52:56;100656.72;;;18.04;79.11
45403;BME280;47427;51.976;5.326;2022-09-09T17:56:22;100663.00;;;17.95;79.24
45403;BME280;47427;51.976;5.326;2022-09-09T17:59:45;100662.22;;;17.83;79.66
45403;BME280;47427;51.976;5.326;2022-09-09T18:03:07;100657.88;;;17.63;80.88
45403;BME280;47427;51.976;5.326;2022-09-09T18:06:37;100651.72;;;17.55;81.25
45403;BME280;47427;51.976;5.326;2022-09-09T18:10:01;100654.44;;;17.43;82.19
45403;BME280;47427;51.976;5.326;2022-09-09T18:13:23;100665.88;;;17.52;82.22
45403;BME280;47427;51.976;5.326;2022-09-09T18:16:47;100667.56;;;17.64;81.53
45403;BME280;47427;51.976;5.326;2022-09-09T18:20:10;100679.97;;;17.64;81.73
45403;BME280;47427;51.976;5.326;2022-09-09T18:23:41;100687.13;;;17.52;82.58
45403;BME280;47427;51.976;5.326;2022-09-09T18:27:04;100683.63;;;17.40;82.80
45403;BME280;47427;51.976;5.326;2022-09-09T18:30:26;100693.34;;;17.36;83.23
45403;BME280;47427;51.976;5.326;2022-09-09T18:33:50;100700.38;;;17.48;83.45
45403;BME280;47427;51.976;5.326;2022-09-09T18:37:14;100705.56;;;17.69;83.05
45403;BME280;47427;51.976;5.326;2022-09-09T18:40:37;100700.31;;;17.65;82.58
45403;BME280;47427;51.976;5.326;2022-09-09T18:44:07;100708.22;;;17.71;82.76
45403;BME280;47427;51.976;5.326;2022-09-09T18:47:31;100711.78;;;17.67;82.45
45403;BME280;47427;51.976;5.326;2022-09-09T18:50:53;100711.81;;;17.61;83.02
45403;BME280;47427;51.976;5.326;2022-09-09T18:54:22;100719.81;;;17.47;83.46
45403;BME280;47427;51.976;5.326;2022-09-09T18:57:44;100726.91;;;17.46;84.50
45403;BME280;47427;51.976;5.326;2022-09-09T19:01:11;100728.66;;;17.49;84.68
45403;BME280;47427;51.976;5.326;2022-09-09T19:04:35;100722.50;;;17.45;85.24
45403;BME280;47427;51.976;5.326;2022-09-09T19:07:57;100727.84;;;17.42;85.51
45403;BME280;47427;51.976;5.326;2022-09-09T19:11:21;100739.28;;;17.49;85.91
45403;BME280;47427;51.976;5.326;2022-09-09T19:14:45;100729.56;;;17.48;86.38
45403;BME280;47427;51.976;5.326;2022-09-09T19:18:08;100744.63;;;17.37;87.11
45403;BME280;47427;51.976;5.326;2022-09-09T19:21:34;100739.38;;;17.21;88.64
45403;BME280;47427;51.976;5.326;2022-09-09T19:24:58;100741.16;;;17.18;88.85
45403;BME280;47427;51.976;5.326;2022-09-09T19:28:21;100748.25;;;17.09;89.89
45403;BME280;47427;51.976;5.326;2022-09-09T19:31:45;100759.75;;;17.07;90.38
45403;BME280;47427;51.976;5.326;2022-09-09T19:35:08;100758.81;;;17.19;90.21
45403;BME280;47427;51.976;5.326;2022-09-09T19:38:33;100764.13;;;17.22;90.38
45403;BME280;47427;51.976;5.326;2022-09-09T19:41:56;100766.78;;;17.16;90.75